Time;durP1;ratioP1;P1;durP2;ratioP2;P2;SDS_P1;SDS_P2;PMS_P1;PMS_P2;Temp;Humidity;BMP_temperature;BMP_pressure;BME280_temperature;BME280_humidity;BME280_pressure;Samples;Min_cycle;Max_cycle;Signal;HPM_P1;HPM_P2
2022/01/16 00:01:04;;;;;;;497.45;279.58;;;-2.20;99.90;;;;;;5076460;28;20048;-76
2022/01/16 00:06:18;;;;;;;502.15;277.45;;;-2.20;99.90;;;;;;5061464;28;20044;-76
2022/01/16 00:08:46;;;;;;;524.75;284.63;;;-2.20;99.90;;;;;;5077715;28;20067;-75
2022/01/16 00:11:13;;;;;;;473.13;258.15;;;-2.40;99.90;;;;;;5079906;28;20238;-76
2022/01/16 00:13:41;;;;;;;450.70;242.57;;;-2.50;99.90;;;;;;5060723;28;20403;-76
2022/01/16 00:16:13;;;;;;;479.27;265.08;;;-2.40;99.90;;;;;;5061981;28;20041;-76
2022/01/16 00:18:49;;;;;;;488.17;267.73;;;-2.40;99.90;;;;;;5059890;28;20038;-76
2022/01/16 00:21:19;;;;;;;485.10;267.75;;;-2.30;99.90;;;;;;5058424;28;20041;-76
2022/01/16 00:23:46;;;;;;;465.60;256.92;;;-2.30;99.90;;;;;;5058824;28;20074;-77
2022/01/16 00:26:14;;;;;;;481.73;262.48;;;-2.30;99.90;;;;;;5058459;28;20064;-76
2022/01/16 00:28:42;;;;;;;480.75;259.90;;;-2.30;99.90;;;;;;5085162;28;20020;-78
2022/01/16 00:31:10;;;;;;;481.45;262.83;;;-2.40;99.90;;;;;;5085624;28;20105;-78
2022/01/16 00:33:42;;;;;;;481.92;257.15;;;-2.40;99.90;;;;;;5071146;28;20045;-77
2022/01/16 00:36:10;;;;;;;485.27;267.75;;;-2.40;99.90;;;;;;5063541;28;20053;-79
2022/01/16 00:38:40;;;;;;;457.88;248.93;;;-2.50;99.90;;;;;;5059848;28;20044;-78
2022/01/16 00:41:08;;;;;;;470.00;259.13;;;-2.50;99.90;;;;;;5060971;28;20056;-78
2022/01/16 00:43:35;;;;;;;463.95;254.60;;;-2.40;99.90;;;;;;5061462;28;20048;-79
2022/01/16 00:46:04;;;;;;;426.25;232.55;;;-2.50;99.90;;;;;;5058794;28;20107;-78
2022/01/16 00:48:32;;;;;;;386.55;212.88;;;-2.60;99.90;;;;;;5061795;28;20041;-78
2022/01/16 00:51:00;;;;;;;424.33;231.13;;;-2.70;99.90;;;;;;5068855;28;20048;-77
2022/01/16 00:53:28;;;;;;;396.40;215.82;;;-2.70;99.90;;;;;;5069631;28;20095;-78
2022/01/16 00:55:57;;;;;;;429.27;231.10;;;-2.80;99.90;;;;;;5066380;28;20109;-78
2022/01/16 00:58:24;;;;;;;433.35;236.95;;;-2.70;99.90;;;;;;5071036;28;20041;-77
2022/01/16 01:00:52;;;;;;;443.00;239.43;;;-2.70;99.90;;;;;;5058221;28;20061;-76
2022/01/16 01:03:19;;;;;;;387.55;209.95;;;-2.80;99.90;;;;;;5043661;28;20050;-77
2022/01/16 01:05:47;;;;;;;410.50;218.45;;;-2.80;99.90;;;;;;5045478;28;20048;-76
2022/01/16 01:08:14;;;;;;;392.90;210.38;;;-2.80;99.90;;;;;;5060472;28;20071;-77
2022/01/16 01:10:46;;;;;;;408.83;218.07;;;-2.80;99.90;;;;;;5061817;28;20113;-77
2022/01/16 01:13:22;;;;;;;402.73;220.80;;;-2.80;99.90;;;;;;5041613;28;20046;-76
2022/01/16 01:15:58;;;;;;;401.95;215.38;;;-2.90;99.90;;;;;;5059485;28;20092;-76
2022/01/16 01:18:26;;;;;;;402.67;211.38;;;-2.90;99.90;;;;;;5078754;28;20044;-77
2022/01/16 01:20:54;;;;;;;385.38;206.05;;;-2.90;99.90;;;;;;5081755;28;20075;-76
2022/01/16 01:23:22;;;;;;;383.15;202.40;;;-2.90;99.90;;;;;;5081995;28;20437;-76
2022/01/16 01:25:49;;;;;;;392.88;200.82;;;-2.80;99.90;;;;;;5097257;28;20048;-76
2022/01/16 01:28:18;;;;;;;380.73;192.73;;;-2.90;99.90;;;;;;5082311;28;20055;-76
2022/01/16 01:30:46;;;;;;;345.45;174.80;;;-2.90;99.90;;;;;;5082753;28;20052;-76
2022/01/16 01:33:15;;;;;;;354.67;176.15;;;-2.90;99.90;;;;;;5082037;28;20098;-75
2022/01/16 01:35:43;;;;;;;351.13;176.02;;;-2.90;99.90;;;;;;5081459;28;20044;-76
2022/01/16 01:38:12;;;;;;;339.90;166.13;;;-2.90;99.90;;;;;;5064145;28;20108;-77
2022/01/16 01:40:41;;;;;;;331.48;164.32;;;-2.90;99.90;;;;;;5082470;28;20076;-76
2022/01/16 01:51:26;;;;;;;441.33;221.88;;;-2.90;99.90;;;;;;5081493;28;20047;-75
2022/01/16 01:53:56;;;;;;;448.60;222.02;;;-3.00;99.90;;;;;;5084275;28;20487;-78
2022/01/16 01:56:25;;;;;;;363.48;178.93;;;-3.00;99.90;;;;;;5087158;28;20106;-77
2022/01/16 01:58:54;;;;;;;393.13;200.70;;;-3.10;99.90;;;;;;5087457;28;20044;-78
2022/01/16 02:01:23;;;;;;;382.00;194.40;;;-3.10;99.90;;;;;;5070659;28;20428;-77
2022/01/16 02:03:51;;;;;;;371.30;180.65;;;-3.10;99.90;;;;;;5059532;28;20055;-76
2022/01/16 02:06:21;;;;;;;349.27;167.25;;;-3.20;99.90;;;;;;5082928;28;20071;-76
2022/01/16 02:08:51;;;;;;;332.77;158.85;;;-3.20;99.90;;;;;;5066267;28;20471;-76
2022/01/16 02:11:22;;;;;;;326.30;162.85;;;-3.10;99.90;;;;;;5058865;28;20052;-77
2022/01/16 02:13:56;;;;;;;319.35;153.82;;;-3.00;99.90;;;;;;5062107;28;20041;-78
2022/01/16 02:34:28;;;;;;;373.58;200.07;;;-3.40;99.90;;;;;;5079860;28;20036;-75
2022/01/16 02:36:18;;;;;;;378.08;206.93;;;-3.50;99.90;;;;;;5078799;28;20044;-77
2022/01/16 02:38:48;;;;;;;379.30;207.63;;;-3.60;99.90;;;;;;5079367;28;20056;-75
2022/01/16 02:41:16;;;;;;;374.77;206.05;;;-3.50;99.90;;;;;;5080072;28;20506;-77
2022/01/16 02:43:48;;;;;;;353.52;192.02;;;-3.50;99.90;;;;;;5080200;28;20140;-75
2022/01/16 02:49:17;;;;;;;335.13;185.20;;;-3.50;99.90;;;;;;5046794;28;20502;-77
2022/01/16 02:51:45;;;;;;;344.27;176.23;;;-3.40;99.90;;;;;;5079873;28;20048;-76
2022/01/16 02:54:14;;;;;;;341.30;179.13;;;-3.30;99.90;;;;;;5061796;28;20104;-78
2022/01/16 02:56:43;;;;;;;332.08;174.93;;;-3.40;99.90;;;;;;5078275;28;20045;-76
2022/01/16 02:59:12;;;;;;;309.65;161.23;;;-3.30;99.90;;;;;;5079509;28;20045;-76
2022/01/16 03:01:40;;;;;;;289.52;152.55;;;-3.30;99.90;;;;;;5079143;28;20053;-76
2022/01/16 03:04:09;;;;;;;289.25;148.27;;;-3.30;99.90;;;;;;5066931;28;20101;-77
2022/01/16 03:06:37;;;;;;;313.60;158.40;;;-3.40;99.90;;;;;;5048312;28;20152;-77
2022/01/16 03:09:07;;;;;;;314.13;158.98;;;-3.40;99.90;;;;;;5060775;28;20104;-78
2022/01/16 03:11:40;;;;;;;317.67;160.80;;;-3.40;99.90;;;;;;5042249;28;20116;-77
2022/01/16 03:14:11;;;;;;;299.55;151.65;;;-3.40;99.90;;;;;;5062583;28;20430;-78
2022/01/16 03:16:41;;;;;;;298.75;150.93;;;-3.30;99.90;;;;;;5089764;28;20055;-76
2022/01/16 03:21:54;;;;;;;279.60;142.85;;;-3.50;99.90;;;;;;5078248;28;20032;-76
2022/01/16 03:24:24;;;;;;;283.98;146.23;;;-3.50;99.90;;;;;;5060036;28;20502;-77
2022/01/16 03:26:56;;;;;;;286.75;148.52;;;-3.50;99.90;;;;;;5078037;28;20482;-76
2022/01/16 03:29:24;;;;;;;273.52;144.73;;;-3.50;99.90;;;;;;5094901;28;20108;-77
2022/01/16 03:31:51;;;;;;;262.02;137.80;;;-3.60;99.90;;;;;;5062307;28;20433;-78
2022/01/16 03:34:19;;;;;;;233.48;122.63;;;-3.60;99.90;;;;;;5070901;28;20048;-77
2022/01/16 03:36:47;;;;;;;239.82;126.38;;;-3.50;99.90;;;;;;5097499;28;20090;-77
2022/01/16 03:39:14;;;;;;;249.02;127.28;;;-3.60;99.90;;;;;;5093386;28;20052;-78
2022/01/16 03:41:42;;;;;;;254.48;129.75;;;-3.60;99.90;;;;;;5084629;28;20051;-77
2022/01/16 03:44:11;;;;;;;268.80;136.25;;;-3.60;99.90;;;;;;5085377;28;20155;-77
2022/01/16 03:46:41;;;;;;;273.55;139.82;;;-3.60;99.90;;;;;;5058377;28;20410;-78
2022/01/16 03:49:11;;;;;;;275.00;138.93;;;-3.70;99.90;;;;;;5058657;28;20132;-77
2022/01/16 03:51:41;;;;;;;230.60;120.45;;;-3.70;99.90;;;;;;5077501;28;20058;-77
2022/01/16 03:54:11;;;;;;;224.40;118.88;;;-3.70;99.90;;;;;;5077163;28;20495;-77
2022/01/16 03:56:39;;;;;;;235.55;123.53;;;-3.70;99.90;;;;;;5074791;28;20040;-77
2022/01/16 03:59:06;;;;;;;247.10;129.25;;;-3.70;99.90;;;;;;5076080;28;20418;-76
2022/01/16 04:01:35;;;;;;;258.45;137.23;;;-3.70;99.90;;;;;;5076438;28;20044;-77
2022/01/16 04:04:04;;;;;;;267.08;137.20;;;-3.70;99.90;;;;;;5075350;28;20057;-76
2022/01/16 04:06:31;;;;;;;254.70;132.57;;;-3.70;99.90;;;;;;5087531;28;20058;-76
2022/01/16 04:08:59;;;;;;;247.80;128.85;;;-3.70;99.90;;;;;;5079145;28;20058;-77
2022/01/16 04:11:28;;;;;;;217.93;118.63;;;-3.70;99.90;;;;;;5079724;28;20489;-76
2022/01/16 04:14:04;;;;;;;230.00;119.03;;;-3.80;99.90;;;;;;5079299;28;20048;-76
2022/01/16 04:16:32;;;;;;;219.95;116.22;;;-3.90;99.90;;;;;;5096237;28;20048;-76
2022/01/16 04:19:01;;;;;;;214.95;111.47;;;-3.90;99.90;;;;;;5077462;28;20091;-76
2022/01/16 04:21:29;;;;;;;217.10;114.28;;;-3.90;99.90;;;;;;5078502;28;20190;-76
2022/01/16 04:23:58;;;;;;;205.63;111.45;;;-3.90;99.90;;;;;;5078271;28;20049;-76
2022/01/16 04:26:26;;;;;;;211.05;111.47;;;-4.00;99.90;;;;;;5059860;28;20060;-77
2022/01/16 04:28:55;;;;;;;220.82;113.32;;;-4.00;99.90;;;;;;5060318;28;20116;-77
2022/01/16 04:31:23;;;;;;;218.65;114.30;;;-4.00;99.90;;;;;;5086890;28;20108;-77
2022/01/16 04:33:51;;;;;;;215.52;115.43;;;-4.00;99.90;;;;;;5089331;28;20037;-78
2022/01/16 04:36:20;;;;;;;211.50;111.40;;;-4.00;99.90;;;;;;5087434;28;20064;-78
2022/01/16 04:38:49;;;;;;;209.90;108.72;;;-4.00;99.90;;;;;;5090785;28;20043;-77
2022/01/16 04:44:03;;;;;;;194.80;105.90;;;-3.90;99.90;;;;;;5098593;28;20036;-77
2022/01/16 04:46:33;;;;;;;214.18;112.40;;;-3.80;99.90;;;;;;5076118;28;20064;-78
2022/01/16 04:49:01;;;;;;;221.15;114.53;;;-3.90;99.90;;;;;;5064372;28;20036;-78
2022/01/16 04:51:32;;;;;;;217.52;113.78;;;-3.90;99.90;;;;;;5061433;28;20067;-78
2022/01/16 04:54:00;;;;;;;225.43;118.00;;;-4.00;99.90;;;;;;5070120;28;20068;-77
2022/01/16 04:56:27;;;;;;;216.38;119.57;;;-4.00;99.90;;;;;;5080228;28;20068;-78
2022/01/16 04:58:55;;;;;;;238.07;122.57;;;-4.00;99.90;;;;;;5058149;28;20464;-77
2022/01/16 05:01:23;;;;;;;248.93;130.18;;;-3.90;99.90;;;;;;5059762;28;20041;-77
2022/01/16 05:03:51;;;;;;;249.95;128.15;;;-3.90;99.90;;;;;;5071459;28;20044;-76
2022/01/16 05:06:18;;;;;;;256.10;133.02;;;-3.90;99.90;;;;;;5081580;28;20120;-78
2022/01/16 05:08:48;;;;;;;253.15;130.85;;;-3.90;99.90;;;;;;5075905;28;20045;-76
2022/01/16 05:11:21;;;;;;;244.38;128.85;;;-4.00;99.90;;;;;;5060090;28;20128;-77
2022/01/16 05:16:37;;;;;;;235.25;124.45;;;-4.00;99.90;;;;;;5076928;28;20044;-77
2022/01/16 05:19:06;;;;;;;219.57;118.10;;;-3.90;99.90;;;;;;5043515;28;20041;-77
2022/01/16 05:21:34;;;;;;;221.48;117.90;;;-4.00;99.90;;;;;;5065848;28;20068;-76
2022/01/16 05:24:08;;;;;;;226.00;120.38;;;-4.00;99.90;;;;;;5064067;28;20100;-78
2022/01/16 05:26:36;;;;;;;236.00;126.45;;;-4.10;99.90;;;;;;5062604;28;20039;-76
2022/01/16 05:29:04;;;;;;;265.73;136.73;;;-4.10;99.90;;;;;;5054560;28;20083;-76
2022/01/16 05:31:32;;;;;;;258.20;129.25;;;-4.10;99.90;;;;;;5059644;28;20047;-76
2022/01/16 05:34:00;;;;;;;232.88;123.38;;;-4.10;99.90;;;;;;5062277;28;20060;-77
2022/01/16 05:36:27;;;;;;;231.40;124.55;;;-4.10;99.90;;;;;;5041834;28;20399;-76
2022/01/16 05:38:55;;;;;;;236.43;127.85;;;-4.10;99.90;;;;;;5058912;28;20040;-77
2022/01/16 05:41:24;;;;;;;220.45;121.40;;;-4.10;99.90;;;;;;5057244;28;20052;-76
2022/01/16 05:43:52;;;;;;;216.88;117.88;;;-4.10;99.90;;;;;;5057171;28;20045;-76
2022/01/16 05:46:20;;;;;;;222.77;123.05;;;-4.10;99.90;;;;;;5056174;28;20137;-77
2022/01/16 05:48:47;;;;;;;253.80;134.75;;;-4.10;99.90;;;;;;5060840;28;20055;-79
2022/01/16 05:51:15;;;;;;;261.27;141.27;;;-4.10;99.90;;;;;;5058645;28;20519;-76
2022/01/16 05:53:44;;;;;;;257.08;135.32;;;-4.10;99.90;;;;;;5052241;28;20131;-76
2022/01/16 05:56:12;;;;;;;242.00;130.77;;;-4.20;99.90;;;;;;5055339;28;20087;-77
2022/01/16 05:58:41;;;;;;;242.45;128.88;;;-4.30;99.90;;;;;;5064756;28;20053;-76
2022/01/16 06:01:09;;;;;;;251.73;129.75;;;-4.30;99.90;;;;;;5056467;28;20068;-77
2022/01/16 06:03:37;;;;;;;245.27;128.38;;;-4.30;99.90;;;;;;5056707;28;20500;-76
2022/01/16 06:06:05;;;;;;;240.15;123.93;;;-4.30;99.90;;;;;;5045329;28;20122;-76
2022/01/16 06:08:32;;;;;;;231.38;118.50;;;-4.30;99.90;;;;;;5060218;28;20048;-77
2022/01/16 06:11:00;;;;;;;235.77;120.97;;;-4.30;99.90;;;;;;5060007;28;20131;-76
2022/01/16 06:13:28;;;;;;;233.30;120.80;;;-4.20;99.90;;;;;;5078332;28;20123;-76
2022/01/16 06:15:56;;;;;;;224.18;117.47;;;-4.20;99.90;;;;;;5060169;28;20079;-77
2022/01/16 06:18:24;;;;;;;215.75;110.55;;;-4.20;99.90;;;;;;5060835;28;20487;-77
2022/01/16 06:20:52;;;;;;;211.48;107.93;;;-4.20;99.90;;;;;;5078085;28;20068;-78
2022/01/16 06:23:20;;;;;;;211.00;107.28;;;-4.20;99.90;;;;;;5060351;28;20048;-77
2022/01/16 06:25:54;;;;;;;212.93;105.43;;;-4.10;99.90;;;;;;5076489;28;20396;-76
2022/01/16 06:28:22;;;;;;;205.90;103.53;;;-4.10;99.90;;;;;;5076628;28;20045;-78
2022/01/16 06:30:50;;;;;;;210.65;105.35;;;-4.10;99.90;;;;;;5061455;28;20047;-76
2022/01/16 06:33:19;;;;;;;228.50;112.00;;;-4.20;99.90;;;;;;5059664;28;20052;-77
2022/01/16 06:35:47;;;;;;;246.00;119.75;;;-4.10;99.90;;;;;;5058287;28;20071;-77
2022/01/16 06:38:14;;;;;;;294.75;141.90;;;-4.10;99.90;;;;;;5077514;28;20052;-76
2022/01/16 06:40:42;;;;;;;252.32;122.53;;;-4.20;99.90;;;;;;5058066;28;20407;-76
2022/01/16 06:43:10;;;;;;;282.88;134.32;;;-4.20;99.90;;;;;;5078952;28;20035;-76
2022/01/16 06:45:37;;;;;;;297.95;144.02;;;-4.10;99.90;;;;;;5079970;28;20067;-77
2022/01/16 06:48:05;;;;;;;270.33;125.97;;;-4.10;99.90;;;;;;5080152;28;20098;-76
2022/01/16 06:50:34;;;;;;;257.98;118.18;;;-4.00;99.90;;;;;;5083302;28;20407;-78
2022/01/16 06:53:02;;;;;;;250.38;116.57;;;-3.90;99.90;;;;;;5076869;28;20033;-75
2022/01/16 06:55:29;;;;;;;239.23;115.22;;;-3.90;99.90;;;;;;5097148;28;20048;-79
2022/01/16 06:57:57;;;;;;;257.70;119.75;;;-3.80;99.90;;;;;;5080849;28;20040;-76
2022/01/16 07:00:24;;;;;;;240.43;116.45;;;-3.70;99.90;;;;;;5079577;28;20036;-79
2022/01/16 07:02:52;;;;;;;233.13;113.22;;;-3.70;99.90;;;;;;5058367;28;20052;-76
2022/01/16 07:05:20;;;;;;;231.80;113.68;;;-3.50;99.90;;;;;;5073572;28;20055;-75
2022/01/16 07:07:49;;;;;;;242.50;118.53;;;-3.40;99.90;;;;;;5103523;28;20040;-77
2022/01/16 07:10:16;;;;;;;256.45;122.05;;;-3.40;99.90;;;;;;5101554;28;20040;-76
2022/01/16 07:12:44;;;;;;;262.90;129.98;;;-3.30;99.90;;;;;;5095969;28;20072;-75
2022/01/16 07:15:13;;;;;;;266.80;134.13;;;-3.30;99.90;;;;;;5064102;28;20102;-76
2022/01/16 07:17:41;;;;;;;272.48;139.65;;;-3.20;99.90;;;;;;5088420;28;20044;-78
2022/01/16 07:20:10;;;;;;;270.85;136.50;;;-3.10;99.90;;;;;;5079575;28;20058;-76
2022/01/16 07:22:37;;;;;;;279.05;137.18;;;-3.00;99.90;;;;;;5102034;28;20059;-77
2022/01/16 07:25:08;;;;;;;290.55;143.95;;;-2.90;99.90;;;;;;5100262;28;20130;-79
2022/01/16 07:27:35;;;;;;;286.50;142.75;;;-2.90;99.90;;;;;;5100868;28;20040;-78
2022/01/16 07:30:03;;;;;;;295.35;152.07;;;-2.90;99.90;;;;;;5095946;28;20086;-78
2022/01/16 07:32:30;;;;;;;315.00;160.90;;;-2.90;99.90;;;;;;5092306;28;20113;-78
2022/01/16 07:34:58;;;;;;;297.02;147.95;;;-2.90;99.90;;;;;;5094230;28;20068;-80
2022/01/16 07:37:25;;;;;;;309.05;156.05;;;-2.90;99.90;;;;;;5075780;28;20044;-79
2022/01/16 07:39:53;;;;;;;316.10;162.82;;;-2.80;99.90;;;;;;5080213;28;20071;-79
2022/01/16 07:42:22;;;;;;;325.20;166.35;;;-2.70;99.90;;;;;;5097959;28;20024;-78
2022/01/16 07:44:51;;;;;;;319.50;162.95;;;-2.50;99.90;;;;;;5080428;28;20017;-78
2022/01/16 07:47:19;;;;;;;331.58;170.63;;;-2.40;99.90;;;;;;5093171;28;20048;-79
2022/01/16 07:49:46;;;;;;;339.35;179.57;;;-2.30;99.90;;;;;;5066409;28;20048;-80
2022/01/16 07:52:14;;;;;;;338.98;179.60;;;-2.20;99.90;;;;;;5069066;28;20047;-80
2022/01/16 07:54:42;;;;;;;339.50;176.98;;;-2.10;99.90;;;;;;5113110;28;20055;-79
2022/01/16 07:57:09;;;;;;;333.45;177.88;;;-1.90;99.90;;;;;;5061500;28;20075;-76
2022/01/16 07:59:38;;;;;;;362.90;193.93;;;-1.80;99.90;;;;;;5075023;28;20075;-78
2022/01/16 08:02:09;;;;;;;377.38;203.48;;;-1.80;99.90;;;;;;5089059;28;20547;-79
2022/01/16 08:04:36;;;;;;;379.25;198.77;;;-1.70;99.90;;;;;;5067961;28;20074;-78
2022/01/16 08:07:07;;;;;;;375.75;200.15;;;-1.60;99.90;;;;;;5096161;28;20039;-79
2022/01/16 08:09:34;;;;;;;369.73;193.32;;;-1.50;99.90;;;;;;5095992;28;20078;-77
2022/01/16 08:12:02;;;;;;;346.08;182.48;;;-1.40;99.90;;;;;;5079981;28;20025;-79
2022/01/16 08:14:29;;;;;;;336.08;177.90;;;-1.30;99.90;;;;;;5097644;28;20070;-80
2022/01/16 08:17:00;;;;;;;337.73;182.18;;;-1.20;99.90;;;;;;5095508;28;20075;-78
2022/01/16 08:19:28;;;;;;;360.90;186.88;;;-1.10;99.90;;;;;;5094247;28;20063;-77
2022/01/16 08:21:59;;;;;;;343.33;178.27;;;-1.00;99.90;;;;;;5075547;28;20051;-81
2022/01/16 08:24:27;;;;;;;364.92;192.82;;;-0.90;99.90;;;;;;5083151;28;20041;-77
2022/01/16 08:26:55;;;;;;;347.85;186.40;;;-0.90;99.90;;;;;;5074337;28;20055;-78
2022/01/16 08:29:23;;;;;;;379.38;198.80;;;-0.80;99.90;;;;;;5074423;28;20068;-76
2022/01/16 08:31:51;;;;;;;367.15;201.30;;;-0.80;99.90;;;;;;5076774;28;20041;-78
2022/01/16 08:34:20;;;;;;;359.23;194.73;;;-0.70;99.90;;;;;;5075151;28;20403;-79
2022/01/16 08:36:47;;;;;;;360.85;200.63;;;-0.60;99.90;;;;;;5074777;28;20556;-78
2022/01/16 08:39:15;;;;;;;385.60;197.27;;;-0.50;99.90;;;;;;5076376;28;20036;-76
2022/01/16 08:41:43;;;;;;;366.63;200.98;;;-0.30;99.90;;;;;;5085516;28;20044;-77
2022/01/16 08:44:11;;;;;;;355.88;195.95;;;-0.20;99.90;;;;;;5078271;28;20052;-76
2022/01/16 08:46:38;;;;;;;389.33;214.25;;;0.00;99.90;;;;;;5095606;28;20123;-77
2022/01/16 08:49:06;;;;;;;372.17;203.75;;;0.10;99.90;;;;;;5079737;28;20123;-77
2022/01/16 08:51:35;;;;;;;354.77;198.43;;;0.10;99.90;;;;;;5060803;28;20127;-77
2022/01/16 08:54:02;;;;;;;338.58;181.75;;;0.10;99.90;;;;;;5077891;28;20032;-77
2022/01/16 08:56:30;;;;;;;325.15;177.88;;;0.20;99.90;;;;;;5096706;28;20041;-80
2022/01/16 08:58:58;;;;;;;318.70;177.80;;;0.20;99.90;;;;;;5091532;28;20195;-79
2022/01/16 09:01:25;;;;;;;296.67;163.55;;;0.20;99.90;;;;;;5061137;28;20129;-81
2022/01/16 09:03:53;;;;;;;274.63;154.90;;;0.30;99.90;;;;;;5077207;28;20083;-77
2022/01/16 09:06:21;;;;;;;268.80;147.30;;;0.50;99.90;;;;;;5074648;28;20079;-79
2022/01/16 09:08:50;;;;;;;227.85;128.95;;;0.50;99.90;;;;;;5074983;28;20583;-80
2022/01/16 09:11:22;;;;;;;233.32;127.50;;;0.50;99.90;;;;;;5075148;28;20495;-79
2022/01/16 09:13:49;;;;;;;243.48;132.05;;;0.60;99.90;;;;;;5073219;28;20044;-78
2022/01/16 09:16:18;;;;;;;248.63;135.82;;;0.80;99.90;;;;;;5075110;28;20123;-79
2022/01/16 09:18:47;;;;;;;248.18;130.82;;;0.80;99.90;;;;;;5075025;28;20076;-78
2022/01/16 09:21:16;;;;;;;226.02;127.68;;;1.00;99.90;;;;;;5074570;28;20041;-78
2022/01/16 09:23:44;;;;;;;226.88;124.72;;;1.20;99.90;;;;;;5073987;28;20033;-79
2022/01/16 09:26:13;;;;;;;222.55;119.60;;;1.30;99.90;;;;;;5069006;28;20502;-79
2022/01/16 09:28:41;;;;;;;225.20;120.85;;;1.40;99.90;;;;;;5074525;28;20477;-80
2022/01/16 09:31:08;;;;;;;229.07;120.18;;;1.40;99.90;;;;;;5074577;28;20047;-77
2022/01/16 09:33:37;;;;;;;204.75;109.53;;;1.60;99.90;;;;;;5073943;28;20039;-76
2022/01/16 09:36:07;;;;;;;195.35;101.40;;;1.70;99.90;;;;;;5073803;28;20398;-78
2022/01/16 09:38:35;;;;;;;213.60;110.95;;;1.80;99.90;;;;;;5074738;28;20604;-81
2022/01/16 09:41:04;;;;;;;219.20;109.28;;;1.90;99.90;;;;;;5076465;28;20052;-78
2022/01/16 09:43:34;;;;;;;233.30;115.78;;;1.90;99.90;;;;;;5074148;28;20048;-79
2022/01/16 09:46:03;;;;;;;215.65;111.35;;;2.10;99.90;;;;;;5076837;28;20075;-80
2022/01/16 09:48:30;;;;;;;210.38;112.05;;;2.20;99.90;;;;;;5084140;28;20452;-78
2022/01/16 09:50:58;;;;;;;199.27;111.45;;;2.30;99.90;;;;;;5072800;28;20036;-78
2022/01/16 09:53:26;;;;;;;196.65;108.28;;;2.40;99.90;;;;;;5065100;28;20079;-78
2022/01/16 09:55:53;;;;;;;187.23;102.75;;;2.60;99.90;;;;;;5076955;28;20040;-77
2022/01/16 09:58:22;;;;;;;174.82;97.43;;;2.70;99.90;;;;;;5074913;28;20505;-76
2022/01/16 10:00:55;;;;;;;163.00;90.78;;;2.80;99.90;;;;;;5067002;28;20064;-77
2022/01/16 10:03:40;;;;;;;175.88;97.75;;;3.00;99.90;;;;;;5075932;28;20052;-75
2022/01/16 10:06:10;;;;;;;208.80;116.97;;;3.20;99.90;;;;;;5077622;28;20467;-77
2022/01/16 10:08:39;;;;;;;226.40;126.50;;;3.30;99.90;;;;;;5090730;28;20087;-77
2022/01/16 10:11:29;;;;;;;217.90;126.38;;;3.40;99.90;;;;;;5060863;28;20071;-77
2022/01/16 10:14:00;;;;;;;217.10;124.50;;;3.60;99.90;;;;;;5057807;28;20048;-79
2022/01/16 10:16:32;;;;;;;225.57;126.85;;;3.70;99.90;;;;;;5078962;28;20614;-78
2022/01/16 10:19:00;;;;;;;217.23;121.38;;;3.80;99.90;;;;;;5077683;28;20040;-77
2022/01/16 10:21:40;;;;;;;209.45;115.90;;;3.90;99.90;;;;;;5076760;28;20051;-77
2022/01/16 10:24:22;;;;;;;230.02;126.40;;;4.00;99.90;;;;;;5090457;28;20135;-77
2022/01/16 10:27:04;;;;;;;240.55;132.35;;;4.00;99.90;;;;;;5063228;28;20449;-78
2022/01/16 10:29:33;;;;;;;249.05;140.00;;;4.10;99.90;;;;;;5058754;28;20144;-78
2022/01/16 10:32:13;;;;;;;257.13;145.32;;;4.30;99.90;;;;;;5077915;28;20116;-76
2022/01/16 10:34:41;;;;;;;248.32;139.32;;;4.40;99.90;;;;;;5076952;28;20075;-77
2022/01/16 10:37:20;;;;;;;258.33;145.10;;;4.50;99.90;;;;;;5085241;28;20051;-78
2022/01/16 10:39:56;;;;;;;235.90;132.18;;;4.60;99.90;;;;;;5068340;28;20143;-76
2022/01/16 10:42:23;;;;;;;204.70;116.85;;;4.60;99.90;;;;;;5059203;28;20060;-77
2022/01/16 10:44:58;;;;;;;194.13;108.60;;;4.60;99.90;;;;;;5058385;28;20135;-77
2022/01/16 10:47:34;;;;;;;153.18;88.65;;;4.70;99.90;;;;;;5066575;28;20048;-80
2022/01/16 10:50:23;;;;;;;153.98;88.40;;;4.70;99.90;;;;;;5088262;28;20127;-79
2022/01/16 10:53:03;;;;;;;149.57;85.70;;;4.80;99.90;;;;;;5093590;28;20036;-77
2022/01/16 10:55:37;;;;;;;164.18;94.45;;;4.80;99.90;;;;;;5080087;28;20116;-78
2022/01/16 10:58:08;;;;;;;155.57;89.53;;;4.80;99.90;;;;;;5069383;28;20040;-78
2022/01/16 11:00:37;;;;;;;150.38;84.85;;;4.90;99.90;;;;;;5058987;28;20049;-77
2022/01/16 11:03:07;;;;;;;155.00;91.43;;;5.00;99.90;;;;;;5092001;28;20447;-79
2022/01/16 11:05:38;;;;;;;154.45;89.00;;;5.10;99.90;;;;;;5068509;28;20075;-78
2022/01/16 11:08:07;;;;;;;148.85;85.63;;;5.20;99.90;;;;;;5050071;28;20127;-78
2022/01/16 11:10:36;;;;;;;134.98;77.25;;;5.30;99.90;;;;;;5037318;28;20409;-78
2022/01/16 11:13:06;;;;;;;141.50;83.13;;;5.40;99.90;;;;;;5043791;28;20037;-79
2022/01/16 11:15:35;;;;;;;155.27;90.40;;;5.40;99.90;;;;;;5046894;28;20139;-81
2022/01/16 11:18:04;;;;;;;163.57;97.00;;;5.50;99.90;;;;;;5056764;28;20072;-79
2022/01/16 11:20:35;;;;;;;174.68;101.78;;;5.60;99.90;;;;;;5039248;28;20431;-79
2022/01/16 11:23:07;;;;;;;174.70;99.55;;;5.70;99.90;;;;;;5038702;28;20045;-79
2022/01/16 11:25:38;;;;;;;199.60;108.13;;;5.90;99.90;;;;;;5055473;28;20170;-79
2022/01/16 11:28:09;;;;;;;194.68;113.75;;;5.90;99.90;;;;;;5054525;28;20114;-78
2022/01/16 11:30:38;;;;;;;200.43;116.35;;;6.10;99.90;;;;;;5069077;28;20069;-79
2022/01/16 11:33:07;;;;;;;213.60;120.25;;;6.10;99.90;;;;;;5070516;28;20036;-80
2022/01/16 11:35:42;;;;;;;224.60;126.90;;;6.20;99.90;;;;;;5056214;28;20044;-81
2022/01/16 11:38:10;;;;;;;229.40;132.77;;;6.20;99.90;;;;;;5039622;28;20488;-80
2022/01/16 11:40:45;;;;;;;216.45;124.30;;;6.20;99.90;;;;;;5056609;28;20517;-79
2022/01/16 11:43:24;;;;;;;211.32;119.50;;;6.30;99.90;;;;;;5064781;28;20450;-82
2022/01/16 11:46:03;;;;;;;212.10;120.95;;;6.30;99.90;;;;;;5038667;28;20057;-82
2022/01/16 11:48:39;;;;;;;213.40;122.13;;;6.40;99.90;;;;;;5039367;28;20475;-82
2022/01/16 11:51:28;;;;;;;;;;;6.30;99.90;;;;;;5043423;28;20120;-80
2022/01/16 11:54:06;;;;;;;195.07;110.50;;;6.30;99.90;;;;;;5043071;28;19932;-84
2022/01/16 11:56:55;;;;;;;192.98;112.22;;;6.30;99.90;;;;;;5051275;28;20132;-80
2022/01/16 11:59:25;;;;;;;186.20;108.68;;;6.30;99.90;;;;;;5065441;28;20056;-81
2022/01/16 12:01:54;;;;;;;178.10;106.00;;;6.20;99.90;;;;;;5054823;28;20067;-82
2022/01/16 12:05:11;;;;;;;178.20;102.07;;;6.10;99.90;;;;;;5048223;28;20402;-81
2022/01/16 12:07:58;;;;;;;169.90;97.05;;;6.00;99.90;;;;;;5076438;22;20128;-78
2022/01/16 12:10:55;;;;;;;161.98;95.82;;;6.00;99.90;;;;;;5043069;28;20090;-77
2022/01/16 12:13:53;;;;;;;157.10;89.55;;;6.00;99.90;;;;;;4997928;28;20507;-76
2022/01/16 12:16:50;;;;;;;150.43;88.43;;;6.00;99.90;;;;;;5027949;28;20052;-77
2022/01/16 12:19:45;;;;;;;158.60;93.50;;;6.10;99.90;;;;;;5062559;28;20103;-79
2022/01/16 12:22:32;;;;;;;163.73;91.78;;;6.20;99.90;;;;;;5056848;28;20045;-78
2022/01/16 12:25:22;;;;;;;162.68;93.13;;;6.20;99.90;;;;;;5052335;28;20041;-77
2022/01/16 12:28:00;;;;;;;165.55;94.43;;;6.30;99.90;;;;;;5049605;28;20099;-76
2022/01/16 12:30:42;;;;;;;162.38;93.80;;;6.40;99.90;;;;;;5032213;28;20041;-78
2022/01/16 12:33:22;;;;;;;164.30;95.15;;;6.50;99.90;;;;;;5042394;28;20044;-79
2022/01/16 12:36:19;;;;;;;164.57;94.50;;;6.60;99.90;;;;;;5020070;28;20069;-78
2022/01/16 12:38:56;;;;;;;162.23;93.70;;;6.70;99.90;;;;;;5020839;28;20046;-78
2022/01/16 12:41:35;;;;;;;160.48;94.80;;;6.70;99.90;;;;;;5019799;28;20474;-77
2022/01/16 12:44:07;;;;;;;161.80;93.55;;;6.70;99.90;;;;;;5018957;28;20050;-78
2022/01/16 12:46:40;;;;;;;161.20;91.45;;;6.70;99.90;;;;;;5036099;28;20052;-76
2022/01/16 12:49:11;;;;;;;155.52;91.10;;;6.80;99.90;;;;;;5018585;28;20516;-76
2022/01/16 12:51:42;;;;;;;155.82;92.50;;;6.80;99.90;;;;;;5051398;28;20049;-77
2022/01/16 12:54:11;;;;;;;159.80;96.10;;;6.90;99.90;;;;;;5018405;28;20053;-78
2022/01/16 12:56:43;;;;;;;166.95;94.85;;;7.00;99.90;;;;;;5037589;28;20125;-77
2022/01/16 12:59:14;;;;;;;166.40;98.97;;;7.00;99.90;;;;;;5019720;28;20060;-77
2022/01/16 13:01:49;;;;;;;173.95;102.43;;;7.10;99.90;;;;;;5036949;28;20702;-78
2022/01/16 13:04:27;;;;;;;171.93;103.65;;;7.10;99.90;;;;;;5018659;28;20045;-78
2022/01/16 13:06:56;;;;;;;177.68;101.05;;;7.20;99.90;;;;;;5018286;28;20056;-76
2022/01/16 13:09:24;;;;;;;165.50;102.22;;;7.20;99.90;;;;;;5018896;28;20500;-79